createdAt,value
2022-08-04T00:00:57.875Z,99130.00
2022-08-04T00:03:30.379Z,99132.97
2022-08-04T00:06:02.123Z,99124.13
2022-08-04T00:08:38.607Z,99133.00
2022-08-04T00:11:08.768Z,99133.34
2022-08-04T00:13:52.700Z,99122.63
2022-08-04T00:16:37.735Z,99123.94
2022-08-04T00:19:12.352Z,99129.97
2022-08-04T00:21:44.093Z,99123.72
2022-08-04T00:24:13.003Z,99124.75
2022-08-04T00:26:41.260Z,99124.75
2022-08-04T00:29:09.113Z,99121.53
2022-08-04T00:31:56.576Z,99125.31
2022-08-04T00:34:27.783Z,99115.84
2022-08-04T00:36:56.939Z,99123.13
2022-08-04T00:39:25.357Z,99124.06
2022-08-04T00:42:05.128Z,99124.84
2022-08-04T00:44:42.270Z,99123.63
2022-08-04T00:47:20.452Z,99121.22
2022-08-04T00:50:06.052Z,99121.75
2022-08-04T00:52:59.496Z,99119.13
2022-08-04T00:55:46.830Z,99122.28
2022-08-04T00:58:24.781Z,99119.75
2022-08-04T01:00:59.596Z,99119.84
2022-08-04T01:03:42.140Z,99120.94
2022-08-04T01:06:17.848Z,99117.22
2022-08-04T01:09:00.718Z,99113.47
2022-08-04T01:11:56.952Z,99121.53
2022-08-04T01:14:38.830Z,99119.53
2022-08-04T01:17:13.896Z,99122.66
2022-08-04T01:20:02.401Z,99121.84
2022-08-04T01:23:06.864Z,99121.41
2022-08-04T01:25:59.687Z,99103.44
2022-08-04T01:28:31.509Z,99128.53
2022-08-04T01:31:06.350Z,99123.94
2022-08-04T01:34:03.485Z,99125.75
2022-08-04T01:36:26.026Z,99126.66
2022-08-04T01:38:55.294Z,99122.25
2022-08-04T01:41:32.262Z,99125.84
2022-08-04T01:44:01.817Z,99125.03
2022-08-04T01:46:34.988Z,99124.13
2022-08-04T01:49:04.092Z,99120.88
2022-08-04T01:51:35.972Z,99126.03
2022-08-04T01:54:03.751Z,99128.09
2022-08-04T01:56:32.238Z,99121.16
2022-08-04T01:59:00.503Z,99126.28
2022-08-04T02:01:28.295Z,99117.88
2022-08-04T02:04:21.273Z,99117.53
2022-08-04T02:06:51.467Z,99126.63
2022-08-04T02:09:25.421Z,99127.38
2022-08-04T02:12:01.501Z,99124.72
2022-08-04T02:14:48.087Z,99116.06
2022-08-04T02:17:17.078Z,99118.78
2022-08-04T02:20:07.081Z,99113.72
2022-08-04T02:22:36.508Z,99113.16
2022-08-04T02:25:07.944Z,99107.38
2022-08-04T02:28:03.918Z,99112.53
2022-08-04T02:30:35.862Z,99110.91
2022-08-04T02:33:05.335Z,99107.22
2022-08-04T02:35:37.571Z,99103.69
2022-08-04T02:38:13.779Z,99097.28
2022-08-04T02:40:43.031Z,99101.13
2022-08-04T02:43:11.212Z,99104.41
2022-08-04T02:45:42.966Z,99107.47
2022-08-04T02:48:30.972Z,99102.72
2022-08-04T02:51:00.853Z,99101.72
2022-08-04T02:53:29.808Z,99105.94
2022-08-04T02:55:58.373Z,99103.13
2022-08-04T02:58:29.088Z,99095.22
2022-08-04T03:00:56.827Z,99109.50
2022-08-04T03:03:28.844Z,99091.88
2022-08-04T03:06:46.993Z,99097.00
2022-08-04T03:09:35.290Z,99104.72
2022-08-04T03:12:51.025Z,99102.19
2022-08-04T03:15:55.503Z,99107.31
2022-08-04T03:18:50.414Z,99105.69
2022-08-04T03:21:31.488Z,99107.94
2022-08-04T03:24:30.040Z,99105.34
2022-08-04T03:27:11.542Z,99105.59
2022-08-04T03:30:07.015Z,99112.78
2022-08-04T03:33:03.948Z,99115.13
2022-08-04T03:35:53.442Z,99114.81
2022-08-04T03:38:59.621Z,99108.97
2022-08-04T03:41:54.892Z,99107.63
2022-08-04T03:44:41.655Z,99119.81
2022-08-04T03:47:26.005Z,99119.31
2022-08-04T03:50:14.907Z,99125.34
2022-08-04T03:53:10.443Z,99120.44
2022-08-04T03:55:48.371Z,99124.16
2022-08-04T03:58:50.802Z,99124.25
2022-08-04T04:01:41.607Z,99127.03
2022-08-04T04:04:39.170Z,99126.78
2022-08-04T04:07:35.722Z,99128.16
2022-08-04T04:10:33.984Z,99138.97
2022-08-04T04:13:29.556Z,99139.72
2022-08-04T04:16:19.305Z,99135.63
2022-08-04T04:19:31.423Z,99136.88
2022-08-04T04:22:14.297Z,99143.22
2022-08-04T04:24:53.474Z,99139.44
2022-08-04T04:27:32.688Z,99138.72
2022-08-04T04:30:07.067Z,99144.31
2022-08-04T04:32:49.758Z,99141.97
2022-08-04T04:35:27.646Z,99147.28
2022-08-04T04:38:08.967Z,99147.03
2022-08-04T04:40:45.242Z,99157.38
2022-08-04T04:43:51.759Z,99147.63
2022-08-04T04:46:17.329Z,99148.50
2022-08-04T04:48:53.977Z,99147.06
2022-08-04T04:51:25.107Z,99149.84
2022-08-04T04:54:00.519Z,99157.34
2022-08-04T04:56:29.995Z,99163.72
2022-08-04T04:58:59.030Z,99162.44
2022-08-04T05:02:00.848Z,99162.41
2022-08-04T05:05:08.477Z,99161.97
2022-08-04T05:07:50.358Z,99166.38
2022-08-04T05:10:28.259Z,99169.00
2022-08-04T05:14:35.579Z,99170.84
2022-08-04T05:16:03.194Z,99175.19
2022-08-04T05:18:34.417Z,99170.97
2022-08-04T05:21:14.790Z,99177.53
2022-08-04T05:23:45.152Z,99173.63
2022-08-04T05:26:14.609Z,99184.97
2022-08-04T05:28:44.229Z,99184.72
2022-08-04T05:31:13.235Z,99186.09
2022-08-04T05:33:42.740Z,99185.13
2022-08-04T05:36:32.677Z,99188.47
2022-08-04T05:39:07.282Z,99179.69
2022-08-04T05:41:45.436Z,99179.38
2022-08-04T05:44:16.707Z,99180.44
2022-08-04T05:46:45.575Z,99180.56
2022-08-04T05:49:22.729Z,99192.47
2022-08-04T05:51:52.301Z,99182.03
2022-08-04T05:54:20.982Z,99188.97
2022-08-04T05:56:50.026Z,99190.66
2022-08-04T05:59:18.262Z,99195.53
2022-08-04T06:01:55.802Z,99196.88
2022-08-04T06:04:28.664Z,99195.47
2022-08-04T06:06:57.808Z,99200.53
2022-08-04T06:09:25.599Z,99201.56
2022-08-04T06:12:01.858Z,99208.41
2022-08-04T06:14:34.082Z,99199.56
2022-08-04T06:17:03.362Z,99206.69
2022-08-04T06:19:59.803Z,99196.47
2022-08-04T06:22:21.179Z,99194.66
2022-08-04T06:24:50.228Z,99194.47
2022-08-04T06:27:18.860Z,99189.84
2022-08-04T06:29:51.617Z,99193.19
2022-08-04T06:32:34.769Z,99199.41
2022-08-04T06:35:07.776Z,99208.44
2022-08-04T06:37:42.606Z,99191.97
2022-08-04T06:40:31.373Z,99188.03
2022-08-04T06:43:01.294Z,99194.94
2022-08-04T06:45:30.107Z,99196.16
2022-08-04T06:47:58.425Z,99195.84
2022-08-04T06:51:26.462Z,99185.44
2022-08-04T06:53:15.760Z,99198.41
2022-08-04T06:55:45.350Z,99201.69
2022-08-04T06:58:13.694Z,99206.16
2022-08-04T07:00:43.438Z,99204.69
2022-08-04T07:03:11.890Z,99203.59
2022-08-04T07:05:39.751Z,99207.59
2022-08-04T07:08:08.277Z,99203.19
2022-08-04T07:10:38.265Z,99205.22
2022-08-04T07:13:07.304Z,99196.75
2022-08-04T07:15:35.148Z,99205.66
2022-08-04T07:18:04.758Z,99206.09
2022-08-04T07:20:36.225Z,99212.16
2022-08-04T07:23:05.196Z,99207.38
2022-08-04T07:26:11.161Z,99211.81
2022-08-04T07:28:23.612Z,99213.06
2022-08-04T07:30:51.747Z,99218.72
2022-08-04T07:33:19.981Z,99215.94
2022-08-04T07:36:09.038Z,99216.34
2022-08-04T07:38:50.646Z,99212.31
2022-08-04T07:41:39.009Z,99208.31
2022-08-04T07:44:08.743Z,99219.63
2022-08-04T07:46:37.165Z,99222.44
2022-08-04T07:49:05.514Z,99226.06
2022-08-04T07:51:35.303Z,99213.56
2022-08-04T07:54:04.058Z,99218.81
2022-08-04T07:56:32.513Z,99208.28
2022-08-04T07:59:01.094Z,99213.09
2022-08-04T08:01:30.658Z,99213.47
2022-08-04T08:04:00.556Z,99212.25
2022-08-04T08:06:32.126Z,99213.03
2022-08-04T08:09:13.340Z,99203.66
2022-08-04T08:12:35.248Z,99212.09
2022-08-04T08:14:31.444Z,99216.13
2022-08-04T08:17:02.535Z,99215.31
2022-08-04T08:19:30.495Z,99209.25
2022-08-04T08:21:59.931Z,99207.22
2022-08-04T08:24:28.507Z,99212.88
2022-08-04T08:26:56.833Z,99215.50
2022-08-04T08:29:25.594Z,99220.75
2022-08-04T08:31:56.592Z,99215.44
2022-08-04T08:34:29.136Z,99214.59
2022-08-04T08:37:00.962Z,99212.63
2022-08-04T08:39:33.936Z,99223.47
2022-08-04T08:42:29.953Z,99221.78
2022-08-04T08:45:19.121Z,99213.28
2022-08-04T08:48:33.566Z,99222.63
2022-08-04T08:51:14.389Z,99215.22
2022-08-04T08:53:52.701Z,99225.72
2022-08-04T08:56:31.415Z,99213.53
2022-08-04T08:59:15.441Z,99212.69
2022-08-04T09:01:53.360Z,99211.34
2022-08-04T09:04:49.919Z,99208.09
2022-08-04T09:07:32.703Z,99209.44
2022-08-04T09:10:09.513Z,99210.25
2022-08-04T09:12:42.595Z,99212.97
2022-08-04T09:15:17.027Z,99208.59
2022-08-04T09:17:50.127Z,99210.06
2022-08-04T09:20:24.315Z,99212.31
2022-08-04T09:22:58.111Z,99213.78
2022-08-04T09:25:30.325Z,99209.41
2022-08-04T09:28:09.079Z,99224.44
2022-08-04T09:30:42.487Z,99209.25
2022-08-04T09:33:17.445Z,99212.75
2022-08-04T09:35:56.466Z,99221.53
2022-08-04T09:38:31.242Z,99212.69
2022-08-04T09:41:05.261Z,99211.78
2022-08-04T09:44:48.838Z,99218.09
2022-08-04T09:46:52.300Z,99207.97
2022-08-04T09:49:22.822Z,99211.81
2022-08-04T09:52:04.236Z,99209.34
2022-08-04T09:54:46.634Z,99204.19
2022-08-04T09:57:18.498Z,99211.63
2022-08-04T09:59:54.955Z,99209.13
2022-08-04T10:02:23.918Z,99205.16
2022-08-04T10:04:53.327Z,99201.03
2022-08-04T10:07:39.470Z,99197.28
2022-08-04T10:10:20.940Z,99202.41
2022-08-04T10:13:13.693Z,99202.59
2022-08-04T10:15:46.003Z,99198.97
2022-08-04T10:18:23.740Z,99205.56
2022-08-04T10:21:06.214Z,99200.94
2022-08-04T10:23:55.727Z,99201.44
2022-08-04T10:26:34.746Z,99188.22
2022-08-04T10:29:06.935Z,99192.47
2022-08-04T10:31:37.756Z,99194.13
2022-08-04T10:34:12.616Z,99194.59
2022-08-04T10:36:52.820Z,99195.97
2022-08-04T10:39:43.377Z,99195.06
2022-08-04T10:42:22.762Z,99189.19
2022-08-04T10:45:02.442Z,99189.09
2022-08-04T10:47:35.372Z,99185.78
2022-08-04T10:50:12.666Z,99184.78
2022-08-04T10:52:46.367Z,99175.59
2022-08-04T10:55:20.456Z,99180.56
2022-08-04T10:57:52.339Z,99176.56
2022-08-04T11:00:25.197Z,99172.03
2022-08-04T11:02:55.164Z,99164.38
2022-08-04T11:05:28.669Z,99166.63
2022-08-04T11:07:59.824Z,99174.22
2022-08-04T11:10:27.321Z,99162.00
2022-08-04T11:12:59.089Z,99168.13
2022-08-04T11:15:29.370Z,99176.97
2022-08-04T11:17:58.947Z,99169.97
2022-08-04T11:20:35.545Z,99165.28
2022-08-04T11:23:08.095Z,99166.88
2022-08-04T11:25:44.646Z,99164.28
2022-08-04T11:28:23.805Z,99161.63
2022-08-04T11:30:54.923Z,99158.31
2022-08-04T11:33:23.323Z,99163.28
2022-08-04T11:35:56.376Z,99168.66
2022-08-04T11:38:32.277Z,99160.81
2022-08-04T11:41:05.350Z,99163.03
2022-08-04T11:43:58.667Z,99166.25
2022-08-04T11:46:29.923Z,99152.97
2022-08-04T11:48:59.074Z,99151.84
2022-08-04T11:51:28.376Z,99153.88
2022-08-04T11:53:56.994Z,99149.56
2022-08-04T11:56:36.521Z,99146.56
2022-08-04T11:59:08.647Z,99154.09
2022-08-04T12:01:37.363Z,99144.78
2022-08-04T12:04:10.594Z,99144.56
2022-08-04T12:06:56.888Z,99141.91
2022-08-04T12:09:31.412Z,99142.84
2022-08-04T12:12:06.950Z,99144.72
2022-08-04T12:14:45.429Z,99141.91
2022-08-04T12:17:14.425Z,99141.69
2022-08-04T12:20:04.629Z,99138.59
2022-08-04T12:22:36.095Z,99132.31
2022-08-04T12:25:06.984Z,99136.91
2022-08-04T12:27:37.541Z,99138.34
2022-08-04T12:31:02.566Z,99134.56
2022-08-04T12:33:00.570Z,99134.03
2022-08-04T12:35:32.382Z,99124.56
2022-08-04T12:38:04.666Z,99122.69
2022-08-04T12:40:38.242Z,99115.47
2022-08-04T12:43:10.629Z,99117.81
2022-08-04T12:45:44.107Z,99121.22
2022-08-04T12:48:21.407Z,99115.06
2022-08-04T12:50:50.082Z,99119.59
2022-08-04T12:53:31.314Z,99120.91
2022-08-04T12:56:01.759Z,99113.09
2022-08-04T12:58:41.989Z,99109.31
2022-08-04T13:02:08.161Z,99104.34
2022-08-04T13:04:11.201Z,99103.16
2022-08-04T13:06:39.927Z,99107.94
2022-08-04T13:09:09.739Z,99100.81
2022-08-04T13:11:50.921Z,99098.59
2022-08-04T13:14:27.176Z,99086.56
2022-08-04T13:17:01.168Z,99088.78
2022-08-04T13:19:29.549Z,99093.22
2022-08-04T13:22:03.072Z,99082.31
2022-08-04T13:24:34.198Z,99076.41
2022-08-04T13:27:09.264Z,99080.47
2022-08-04T13:30:00.191Z,99070.75
2022-08-04T13:32:30.208Z,99077.41
2022-08-04T13:34:59.278Z,99081.28
2022-08-04T13:37:32.318Z,99076.19
2022-08-04T13:40:00.566Z,99089.84
2022-08-04T13:42:28.600Z,99082.19
2022-08-04T13:44:58.666Z,99085.41
2022-08-04T13:47:30.404Z,99079.34
2022-08-04T13:50:16.552Z,99085.47
2022-08-04T13:52:45.812Z,99078.50
2022-08-04T13:55:21.355Z,99083.91
2022-08-04T13:57:52.006Z,99079.28
2022-08-04T14:00:29.632Z,99083.41
2022-08-04T14:03:03.299Z,99086.22
2022-08-04T14:05:58.733Z,99082.66
2022-08-04T14:08:22.038Z,99083.41
2022-08-04T14:10:55.126Z,99081.53
2022-08-04T14:13:30.557Z,99066.41
2022-08-04T14:16:17.333Z,99069.75
2022-08-04T14:18:46.719Z,99071.00
2022-08-04T14:21:15.489Z,99067.03
2022-08-04T14:23:47.563Z,99066.53
2022-08-04T14:26:31.541Z,99057.28
2022-08-04T14:29:26.742Z,99060.47
2022-08-04T14:32:05.954Z,99067.03
2022-08-04T14:34:42.651Z,99056.69
2022-08-04T14:37:19.373Z,99053.50
2022-08-04T14:40:08.621Z,99060.78
2022-08-04T14:42:44.513Z,99060.78
2022-08-04T14:45:31.650Z,99049.47
2022-08-04T14:47:59.485Z,99055.78
2022-08-04T14:50:41.386Z,99051.13
2022-08-04T14:53:11.058Z,99054.88
2022-08-04T14:55:39.837Z,99047.72
2022-08-04T14:58:35.211Z,99045.06
2022-08-04T15:00:57.763Z,99041.47
2022-08-04T15:03:26.393Z,99033.31
2022-08-04T15:06:05.410Z,99038.75
2022-08-04T15:08:37.491Z,99040.66
2022-08-04T15:11:05.392Z,99048.72
2022-08-04T15:13:33.508Z,99047.13
2022-08-04T15:16:08.034Z,99043.16
2022-08-04T15:18:37.675Z,99047.47
2022-08-04T15:21:09.038Z,99046.16
2022-08-04T15:23:39.324Z,99051.25
2022-08-04T15:26:10.362Z,99045.91
2022-08-04T15:28:39.845Z,99039.44
2022-08-04T15:31:10.602Z,99042.31
2022-08-04T15:33:56.714Z,99037.91
2022-08-04T15:36:35.560Z,99036.03
2022-08-04T15:39:09.812Z,99029.66
2022-08-04T15:41:46.263Z,99033.50
2022-08-04T15:44:37.909Z,99038.84
2022-08-04T15:47:14.158Z,99025.59
2022-08-04T15:49:41.995Z,99031.72
2022-08-04T15:52:12.939Z,99025.75
2022-08-04T15:54:42.399Z,99024.69
2022-08-04T15:57:58.406Z,99023.63
2022-08-04T16:00:26.173Z,99020.94
2022-08-04T16:02:53.897Z,99020.94
2022-08-04T16:05:41.647Z,99020.06
2022-08-04T16:08:17.758Z,99016.56
2022-08-04T16:10:48.050Z,99018.84
2022-08-04T16:13:19.850Z,99007.75
2022-08-04T16:15:53.013Z,99008.75
2022-08-04T16:18:26.022Z,99019.50
2022-08-04T16:20:56.085Z,99022.47
2022-08-04T16:24:06.134Z,99023.63
2022-08-04T16:26:53.530Z,99025.69
2022-08-04T16:29:37.927Z,99016.75
2022-08-04T16:32:23.377Z,99015.63
2022-08-04T16:34:57.015Z,99016.66
2022-08-04T16:37:28.198Z,99008.66
2022-08-04T16:40:34.520Z,99014.34
2022-08-04T16:43:05.148Z,99018.19
2022-08-04T16:45:47.649Z,99013.63
2022-08-04T16:48:16.340Z,99008.09
2022-08-04T16:50:49.601Z,99011.03
2022-08-04T16:53:51.486Z,98999.00
2022-08-04T16:56:10.420Z,99003.97
2022-08-04T16:58:38.235Z,99006.66
2022-08-04T17:01:34.126Z,99009.69
2022-08-04T17:04:06.016Z,99003.44
2022-08-04T17:06:35.979Z,99015.66
2022-08-04T17:09:06.156Z,99005.88
2022-08-04T17:11:35.591Z,99016.53
2022-08-04T17:14:05.658Z,99016.94
2022-08-04T17:16:35.824Z,99013.50
2022-08-04T17:19:03.703Z,99015.72
2022-08-04T17:21:32.700Z,99010.09
2022-08-04T17:24:12.578Z,99007.03
2022-08-04T17:26:51.742Z,99004.84
2022-08-04T17:29:43.910Z,99007.03
2022-08-04T17:32:15.665Z,99001.72
2022-08-04T17:34:44.646Z,99006.34
2022-08-04T17:37:37.843Z,99015.50
2022-08-04T17:40:09.920Z,99005.31
2022-08-04T17:42:41.374Z,99001.34
2022-08-04T17:47:59.865Z,99003.69
2022-08-04T17:50:28.137Z,99009.91
2022-08-04T17:53:12.299Z,99018.59
2022-08-04T17:55:42.354Z,99007.03
2022-08-04T17:58:21.573Z,99008.03
2022-08-04T18:01:10.627Z,99013.13
2022-08-04T18:03:51.675Z,99004.13
2022-08-04T18:06:20.863Z,99013.09
2022-08-04T18:08:54.793Z,99011.94
2022-08-04T18:11:28.814Z,99005.22
2022-08-04T18:14:04.593Z,99011.50
2022-08-04T18:16:32.395Z,99014.38
2022-08-04T18:19:08.728Z,99017.28
2022-08-04T18:21:46.524Z,99021.75
2022-08-04T18:24:33.857Z,99020.66
2022-08-04T18:27:03.090Z,99021.97
2022-08-04T18:29:39.171Z,99020.44
2022-08-04T18:32:09.097Z,99021.72
2022-08-04T18:34:40.697Z,99018.50
2022-08-04T18:38:03.772Z,99021.75
2022-08-04T18:40:10.227Z,99017.69
2022-08-04T18:42:44.375Z,99016.91
2022-08-04T18:45:13.973Z,99025.81
2022-08-04T18:47:58.786Z,99027.03
2022-08-04T18:50:59.577Z,99028.66
2022-08-04T18:53:15.037Z,99020.16
2022-08-04T18:55:56.428Z,99021.78
2022-08-04T18:58:27.675Z,99041.13
2022-08-04T19:01:00.574Z,99024.59
2022-08-04T19:03:32.979Z,99025.00
2022-08-04T19:06:02.018Z,99022.97
2022-08-04T19:08:34.313Z,99034.63
2022-08-04T19:11:29.296Z,99027.72
2022-08-04T19:13:54.532Z,99016.03
2022-08-04T19:16:28.417Z,99024.06
2022-08-04T19:18:56.633Z,99025.59
2022-08-04T19:22:01.498Z,99025.19
2022-08-04T19:27:07.050Z,99034.66
2022-08-04T19:29:37.630Z,99033.97
2022-08-04T19:32:15.162Z,99029.53
2022-08-04T19:34:46.432Z,99021.84
2022-08-04T19:37:56.104Z,99031.16
2022-08-04T19:40:09.339Z,99027.19
2022-08-04T19:42:37.464Z,99024.72
2022-08-04T19:45:17.026Z,99018.88
2022-08-04T19:48:17.761Z,99025.66
2022-08-04T19:50:45.920Z,99022.28
2022-08-04T19:53:18.771Z,99024.75
2022-08-04T19:55:49.892Z,99029.53
2022-08-04T19:58:19.758Z,99027.69
2022-08-04T20:00:51.275Z,99025.09
2022-08-04T20:03:21.140Z,99028.84
2022-08-04T20:05:53.127Z,99024.31
2022-08-04T20:08:24.334Z,99041.56
2022-08-04T20:13:40.329Z,99030.31
2022-08-04T20:16:28.484Z,99027.78
2022-08-04T20:19:02.781Z,99026.50
2022-08-04T20:21:53.973Z,99021.53
2022-08-04T20:24:38.072Z,99029.38
2022-08-04T20:27:14.745Z,99020.22
2022-08-04T20:29:46.264Z,99025.16
2022-08-04T20:32:18.278Z,99038.38
2022-08-04T20:34:49.035Z,99036.28
2022-08-04T20:37:17.134Z,99035.16
2022-08-04T20:39:45.012Z,99038.38
2022-08-04T20:42:27.323Z,99041.59
2022-08-04T20:45:01.593Z,99043.22
2022-08-04T20:47:34.989Z,99041.13
2022-08-04T20:50:05.560Z,99038.31
2022-08-04T20:52:37.671Z,99039.97
2022-08-04T20:55:06.981Z,99034.19
2022-08-04T20:57:50.055Z,99033.34
2022-08-04T21:00:26.241Z,99036.56
2022-08-04T21:02:57.411Z,99034.34
2022-08-04T21:05:26.750Z,99028.06
2022-08-04T21:07:56.648Z,99033.22
2022-08-04T21:10:24.966Z,99034.03
2022-08-04T21:12:53.997Z,99036.72
2022-08-04T21:15:25.609Z,99041.84
2022-08-04T21:17:57.996Z,99038.03
2022-08-04T21:20:34.522Z,99033.28
2022-08-04T21:23:04.985Z,99033.84
2022-08-04T21:25:32.976Z,99035.19
2022-08-04T21:28:11.360Z,99022.84
2022-08-04T21:30:53.210Z,99033.03
2022-08-04T21:33:23.408Z,99032.22
2022-08-04T21:35:53.908Z,99034.50
2022-08-04T21:38:28.050Z,99034.59
2022-08-04T21:40:58.815Z,99026.59
2022-08-04T21:43:42.579Z,99034.66
2022-08-04T21:46:11.359Z,99024.59
2022-08-04T21:48:39.619Z,99032.19
2022-08-04T21:54:08.543Z,99026.63
2022-08-04T21:56:37.963Z,99020.16
2022-08-04T21:59:11.564Z,99031.94
2022-08-04T22:01:51.781Z,99027.88
2022-08-04T22:04:20.500Z,99028.25
2022-08-04T22:09:41.411Z,99026.31
2022-08-04T22:12:12.100Z,99026.53
2022-08-04T22:14:40.077Z,99026.97
2022-08-04T22:17:13.893Z,99032.06
2022-08-04T22:19:55.698Z,99033.75
2022-08-04T22:22:29.194Z,99029.28
2022-08-04T22:24:58.754Z,99025.28
2022-08-04T22:27:47.787Z,99024.25
2022-08-04T22:30:23.116Z,99025.88
2022-08-04T22:32:50.794Z,99026.75
2022-08-04T22:35:30.905Z,99021.75
2022-08-04T22:38:27.893Z,99025.63
2022-08-04T22:40:58.070Z,99032.56
2022-08-04T22:43:33.499Z,99034.03
2022-08-04T22:46:03.800Z,99029.13
2022-08-04T22:48:33.670Z,99019.00
2022-08-04T22:51:01.651Z,99018.41
2022-08-04T22:53:34.253Z,99023.19
2022-08-04T22:56:09.242Z,99010.22
2022-08-04T22:58:40.204Z,99016.25
2022-08-04T23:01:08.941Z,99015.19
2022-08-04T23:03:38.430Z,99017.25
2022-08-04T23:06:11.043Z,99015.19
2022-08-04T23:08:43.167Z,99011.94
2022-08-04T23:11:14.895Z,99008.97
2022-08-04T23:13:42.780Z,99000.84
2022-08-04T23:16:11.182Z,98998.31
2022-08-04T23:18:41.847Z,98994.81
2022-08-04T23:21:11.355Z,99001.41
2022-08-04T23:23:45.709Z,99001.84
2022-08-04T23:26:27.486Z,98992.72
2022-08-04T23:28:56.525Z,98988.97
2022-08-04T23:31:25.007Z,98985.88
2022-08-04T23:34:08.658Z,98984.34
2022-08-04T23:36:36.484Z,98981.09
2022-08-04T23:39:06.447Z,98977.78
2022-08-04T23:41:53.502Z,98968.75
2022-08-04T23:44:24.757Z,98977.69
2022-08-04T23:46:58.627Z,98981.66
2022-08-04T23:49:44.094Z,98977.94
2022-08-04T23:52:15.752Z,98968.47
2022-08-04T23:54:56.685Z,98971.88
2022-08-04T23:58:02.301Z,98974.63
